createdAt,value
2022-08-05T00:01:28.512Z,101590.31
2022-08-05T00:03:57.132Z,101595.47
2022-08-05T00:06:30.724Z,101598.28
2022-08-05T00:09:00.939Z,101583.78
2022-08-05T00:11:30.625Z,101584.72
2022-08-05T00:14:16.933Z,101590.31
2022-08-05T00:16:53.044Z,101588.44
2022-08-05T00:19:24.893Z,101581.47
2022-08-05T00:21:59.354Z,101578.69
2022-08-05T00:24:30.961Z,101561.50
2022-08-05T00:26:58.731Z,101566.81
2022-08-05T00:29:27.505Z,101567.75
2022-08-05T00:32:12.742Z,101567.75
2022-08-05T00:35:05.043Z,101565.78
2022-08-05T00:37:51.240Z,101567.06
2022-08-05T00:40:17.933Z,101554.44
2022-08-05T00:42:54.700Z,101557.97
2022-08-05T00:45:28.051Z,101552.56
2022-08-05T00:48:05.420Z,101546.22
2022-08-05T00:50:32.417Z,101538.25
2022-08-05T00:52:58.980Z,101539.16
2022-08-05T00:55:42.257Z,101541.94
2022-08-05T00:58:11.335Z,101538.03
2022-08-05T01:00:38.352Z,101547.22
2022-08-05T01:03:07.868Z,101542.75
2022-08-05T01:05:35.159Z,101541.81
2022-08-05T01:08:40.929Z,101552.66
2022-08-05T01:10:55.404Z,101571.94
2022-08-05T01:13:58.809Z,101560.97
2022-08-05T01:16:34.380Z,101562.16
2022-08-05T01:19:16.516Z,101558.34
2022-08-05T01:21:58.347Z,101545.72
2022-08-05T01:24:35.936Z,101560.13
2022-08-05T01:27:24.235Z,101569.59
2022-08-05T01:29:54.731Z,101580.22
2022-08-05T01:32:23.861Z,101577.56
2022-08-05T01:35:01.076Z,101579.25
2022-08-05T01:38:06.041Z,101580.22
2022-08-05T01:40:33.371Z,101573.59
2022-08-05T01:43:03.584Z,101575.84
2022-08-05T01:45:34.978Z,101578.78
2022-08-05T01:48:10.363Z,101585.75
2022-08-05T01:50:39.531Z,101571.50
2022-08-05T01:53:17.048Z,101569.59
2022-08-05T01:56:04.858Z,101564.31
2022-08-05T01:58:45.208Z,101562.19
2022-08-05T02:01:13.528Z,101560.88
2022-08-05T02:03:44.348Z,101548.00
2022-08-05T02:06:33.450Z,101551.91
2022-08-05T02:08:59.232Z,101559.09
2022-08-05T02:11:32.759Z,101566.66
2022-08-05T02:14:01.564Z,101566.41
2022-08-05T02:16:52.813Z,101564.38
2022-08-05T02:19:28.805Z,101560.09
2022-08-05T02:22:09.964Z,101555.44
2022-08-05T02:24:54.154Z,101554.72
2022-08-05T02:27:29.919Z,101558.34
2022-08-05T02:30:10.734Z,101546.56
2022-08-05T02:32:38.371Z,101548.59
2022-08-05T02:35:13.496Z,101551.47
2022-08-05T02:37:42.003Z,101552.25
2022-08-05T02:40:10.236Z,101554.97
2022-08-05T02:42:37.633Z,101572.19
2022-08-05T02:45:04.643Z,101571.00
2022-08-05T02:48:06.337Z,101568.63
2022-08-05T02:50:18.949Z,101566.06
2022-08-05T02:52:45.933Z,101574.97
2022-08-05T02:55:13.140Z,101578.00
2022-08-05T02:58:20.021Z,101572.09
2022-08-05T03:00:27.540Z,101586.25
2022-08-05T03:02:54.636Z,101580.03
2022-08-05T03:05:21.953Z,101583.19
2022-08-05T03:08:10.175Z,101584.13
2022-08-05T03:10:37.021Z,101580.56
2022-08-05T03:13:16.755Z,101583.44
2022-08-05T03:15:45.220Z,101578.00
2022-08-05T03:18:12.032Z,101580.03
2022-08-05T03:20:48.667Z,101582.00
2022-08-05T03:23:15.661Z,101597.06
2022-08-05T03:26:04.404Z,101597.94
2022-08-05T03:28:29.876Z,101594.78
2022-08-05T03:30:57.604Z,101588.34
2022-08-05T03:33:24.430Z,101581.16
2022-08-05T03:36:11.938Z,101573.06
2022-08-05T03:38:44.688Z,101573.78
2022-08-05T03:41:20.075Z,101572.94
2022-08-05T03:44:09.636Z,101572.41
2022-08-05T03:46:36.908Z,101574.19
2022-08-05T03:49:03.721Z,101565.88
2022-08-05T03:52:37.667Z,101567.81
2022-08-05T03:56:01.121Z,101568.59
2022-08-05T03:57:42.208Z,101570.38
2022-08-05T04:00:12.505Z,101569.88
2022-08-05T04:02:52.196Z,101574.13
2022-08-05T04:05:27.955Z,101566.38
2022-08-05T04:08:02.229Z,101560.09
2022-08-05T04:10:35.798Z,101560.44
2022-08-05T04:13:06.501Z,101555.84
2022-08-05T04:15:36.544Z,101550.56
2022-08-05T04:18:07.996Z,101546.78
2022-08-05T04:20:36.285Z,101544.75
2022-08-05T04:23:02.849Z,101553.91
2022-08-05T04:25:56.619Z,101562.25
2022-08-05T04:28:17.414Z,101557.63
2022-08-05T04:30:44.209Z,101568.00
2022-08-05T04:33:10.813Z,101563.66
2022-08-05T04:36:15.626Z,101568.59
2022-08-05T04:38:39.804Z,101568.31
2022-08-05T04:41:07.503Z,101578.16
2022-08-05T04:43:36.359Z,101593.03
2022-08-05T04:46:05.175Z,101590.47
2022-08-05T04:48:31.953Z,101600.69
2022-08-05T04:51:02.905Z,101598.13
2022-08-05T04:53:36.563Z,101598.25
2022-08-05T04:56:32.427Z,101599.72
2022-08-05T04:58:56.034Z,101598.00
2022-08-05T05:02:05.827Z,101590.72
2022-08-05T05:04:09.582Z,101590.81
2022-08-05T05:06:44.277Z,101596.06
2022-08-05T05:09:17.696Z,101593.50
2022-08-05T05:11:55.446Z,101593.53
2022-08-05T05:14:27.819Z,101586.06
2022-08-05T05:17:00.013Z,101586.53
2022-08-05T05:19:36.206Z,101589.16
2022-08-05T05:22:22.883Z,101593.66
2022-08-05T05:24:58.713Z,101602.25
2022-08-05T05:27:41.809Z,101601.25
2022-08-05T05:30:28.796Z,101607.44
2022-08-05T05:33:00.933Z,101609.78
2022-08-05T05:35:34.145Z,101602.50
2022-08-05T05:38:09.327Z,101598.91
2022-08-05T05:40:42.488Z,101601.50
2022-08-05T05:43:14.571Z,101605.09
2022-08-05T05:45:49.311Z,101594.53
2022-08-05T05:48:15.979Z,101589.41
2022-08-05T05:50:44.249Z,101589.31
2022-08-05T05:53:21.587Z,101594.72
2022-08-05T05:55:51.941Z,101591.03
2022-08-05T05:58:30.282Z,101594.59
2022-08-05T06:01:12.385Z,101590.94
2022-08-05T06:04:01.395Z,101591.03
2022-08-05T06:06:31.401Z,101583.97
2022-08-05T06:09:03.820Z,101586.97
2022-08-05T06:11:31.281Z,101591.44
2022-08-05T06:13:58.021Z,101591.50
2022-08-05T06:16:32.628Z,101592.00
2022-08-05T06:19:05.936Z,101585.63
2022-08-05T06:21:35.967Z,101585.63
2022-08-05T06:24:11.355Z,101590.00
2022-08-05T06:26:52.029Z,101587.75
2022-08-05T06:29:43.234Z,101589.41
2022-08-05T06:32:24.978Z,101593.19
2022-08-05T06:34:56.613Z,101582.34
2022-08-05T06:37:57.055Z,101581.56
2022-08-05T06:40:18.170Z,101584.97
2022-08-05T06:42:48.163Z,101588.34
2022-08-05T06:45:20.715Z,101594.72
2022-08-05T06:48:37.316Z,101590.94
2022-08-05T06:50:34.817Z,101590.00
2022-08-05T06:53:11.551Z,101593.72
2022-08-05T06:55:38.514Z,101596.53
2022-08-05T06:58:29.238Z,101605.44
2022-08-05T07:00:59.130Z,101598.13
2022-08-05T07:03:27.949Z,101598.13
2022-08-05T07:05:59.249Z,101595.53
2022-08-05T07:08:25.940Z,101605.38
2022-08-05T07:10:53.918Z,101609.00
2022-08-05T07:13:58.805Z,101605.75
2022-08-05T07:18:02.278Z,101615.34
2022-08-05T07:22:28.271Z,101614.28
2022-08-05T07:25:22.111Z,101627.13
2022-08-05T07:27:58.206Z,101620.06
2022-08-05T07:30:32.500Z,101627.25
2022-08-05T07:33:01.544Z,101620.16
2022-08-05T07:36:02.437Z,101622.63
2022-08-05T07:38:33.008Z,101627.13
2022-08-05T07:41:16.861Z,101625.25
2022-08-05T07:43:49.708Z,101625.25
2022-08-05T07:46:24.867Z,101628.97
2022-08-05T07:49:03.821Z,101627.84
2022-08-05T07:51:36.994Z,101624.91
2022-08-05T07:54:08.327Z,101622.25
2022-08-05T07:57:00.587Z,101623.94
2022-08-05T07:59:31.101Z,101630.22
2022-08-05T08:02:07.629Z,101631.81
2022-08-05T08:04:42.993Z,101653.69
2022-08-05T08:07:11.981Z,101650.91
2022-08-05T08:09:38.578Z,101661.69
2022-08-05T08:12:12.477Z,101664.34
2022-08-05T08:14:46.698Z,101654.25
2022-08-05T08:17:14.973Z,101662.56
2022-08-05T08:20:21.382Z,101663.28
2022-08-05T08:22:30.916Z,101662.66
2022-08-05T08:25:03.246Z,101658.97
2022-08-05T08:27:35.729Z,101667.91
2022-08-05T08:30:19.660Z,101660.56
2022-08-05T08:33:02.603Z,101663.25
2022-08-05T08:35:34.712Z,101675.19
2022-08-05T08:38:07.454Z,101670.53
2022-08-05T08:40:35.217Z,101680.81
2022-08-05T08:45:16.160Z,101680.38
2022-08-05T08:45:50.085Z,101680.63
2022-08-05T08:48:43.033Z,101679.53
2022-08-05T08:51:22.247Z,101686.69
2022-08-05T08:53:51.687Z,101686.88
2022-08-05T08:56:19.355Z,101682.03
2022-08-05T08:58:49.575Z,101678.50
2022-08-05T09:01:18.886Z,101694.66
2022-08-05T09:03:54.602Z,101696.44
2022-08-05T09:06:27.824Z,101690.69
2022-08-05T09:08:55.201Z,101698.84
2022-08-05T09:11:51.473Z,101704.72
2022-08-05T09:14:58.318Z,101699.63
2022-08-05T09:16:55.796Z,101709.91
2022-08-05T09:19:27.766Z,101708.59
2022-08-05T09:22:23.520Z,101701.31
2022-08-05T09:25:13.945Z,101695.97
2022-08-05T09:28:04.537Z,101700.47
2022-08-05T09:30:33.439Z,101698.22
2022-08-05T09:33:02.291Z,101709.91
2022-08-05T09:35:29.469Z,101707.34
2022-08-05T09:38:12.829Z,101710.06
2022-08-05T09:40:52.689Z,101711.78
2022-08-05T09:43:40.514Z,101716.88
2022-08-05T09:46:27.607Z,101705.56
2022-08-05T09:49:08.190Z,101714.47
2022-08-05T09:51:42.286Z,101710.69
2022-08-05T09:54:10.018Z,101706.16
2022-08-05T09:56:38.072Z,101710.44
2022-08-05T09:59:07.102Z,101710.59
2022-08-05T10:01:36.767Z,101712.34
2022-08-05T10:04:13.814Z,101716.72
2022-08-05T10:06:58.862Z,101714.75
2022-08-05T10:09:28.084Z,101718.50
2022-08-05T10:12:30.562Z,101709.19
2022-08-05T10:15:13.843Z,101720.69
2022-08-05T10:17:54.447Z,101713.38
2022-08-05T10:20:23.615Z,101732.63
2022-08-05T10:22:51.897Z,101727.06
2022-08-05T10:25:19.268Z,101730.75
2022-08-05T10:28:13.528Z,101737.03
2022-08-05T10:31:19.989Z,101742.38
2022-08-05T10:33:25.722Z,101749.44
2022-08-05T10:35:59.655Z,101742.13
2022-08-05T10:38:28.340Z,101743.34
2022-08-05T10:41:07.215Z,101744.78
2022-08-05T10:43:37.135Z,101744.88
2022-08-05T10:46:11.860Z,101750.22
2022-08-05T10:48:52.974Z,101756.47
2022-08-05T10:51:28.455Z,101743.00
2022-08-05T10:54:01.603Z,101745.47
2022-08-05T10:56:30.388Z,101755.66
2022-08-05T10:59:07.218Z,101766.25
2022-08-05T11:01:55.216Z,101768.03
2022-08-05T11:04:31.154Z,101777.13
2022-08-05T11:06:58.527Z,101786.88
2022-08-05T11:09:39.488Z,101794.97
2022-08-05T11:12:24.997Z,101805.81
2022-08-05T11:15:20.437Z,101804.88
2022-08-05T11:18:07.392Z,101798.63
2022-08-05T11:20:51.369Z,101824.66
2022-08-05T11:24:05.570Z,101820.34
2022-08-05T11:26:28.206Z,101828.38
2022-08-05T11:28:55.977Z,101826.63
2022-08-05T11:31:57.043Z,101846.41
2022-08-05T11:34:18.062Z,101856.13
2022-08-05T11:36:52.943Z,101847.00
2022-08-05T11:39:55.506Z,101850.59
2022-08-05T11:42:32.625Z,101841.44
2022-08-05T11:45:05.971Z,101862.16
2022-08-05T11:47:54.500Z,101873.16
2022-08-05T11:50:21.738Z,101878.53
2022-08-05T11:52:50.244Z,101888.38
2022-08-05T11:55:18.746Z,101885.66
2022-08-05T11:58:10.224Z,101882.94
2022-08-05T12:00:38.655Z,101891.00
2022-08-05T12:03:31.699Z,101890.06
2022-08-05T12:06:00.523Z,101893.47
2022-08-05T12:08:27.591Z,101896.31
2022-08-05T12:10:56.056Z,101898.16
2022-08-05T12:13:48.083Z,101902.56
2022-08-05T12:16:14.469Z,101908.72
2022-08-05T12:18:42.619Z,101898.69
2022-08-05T12:21:19.035Z,101907.09
2022-08-05T12:24:08.865Z,101905.13
2022-08-05T12:26:37.152Z,101909.66
2022-08-05T12:29:09.468Z,101913.94
2022-08-05T12:31:45.942Z,101920.53
2022-08-05T12:34:20.575Z,101923.53
2022-08-05T12:36:48.810Z,101924.78
2022-08-05T12:39:15.573Z,101929.44
2022-08-05T12:41:43.731Z,101936.28
2022-08-05T12:44:14.302Z,101935.44
2022-08-05T12:46:53.205Z,101941.09
2022-08-05T12:49:20.504Z,101944.59
2022-08-05T12:52:11.051Z,101947.16
2022-08-05T12:54:51.081Z,101952.66
2022-08-05T12:57:18.997Z,101956.00
2022-08-05T13:01:57.135Z,101961.06
2022-08-05T13:02:41.484Z,101958.16
2022-08-05T13:05:12.583Z,101960.81
2022-08-05T13:08:00.478Z,101961.06
2022-08-05T13:10:28.734Z,101962.88
2022-08-05T13:12:58.154Z,101972.78
2022-08-05T13:15:41.449Z,101982.63
2022-08-05T13:18:18.919Z,101976.22
2022-08-05T13:20:49.168Z,101970.06
2022-08-05T13:23:17.972Z,101981.66
2022-08-05T13:25:52.093Z,101978.94
2022-08-05T13:28:25.757Z,101986.16
2022-08-05T13:30:53.306Z,101991.59
2022-08-05T13:34:20.954Z,101989.00
2022-08-05T13:36:09.467Z,102003.41
2022-08-05T13:38:42.370Z,102009.75
2022-08-05T13:41:10.313Z,102022.63
2022-08-05T13:43:45.652Z,102025.38
2022-08-05T13:46:43.892Z,102019.94
2022-08-05T13:49:12.823Z,102026.22
2022-08-05T13:51:45.787Z,102017.31
2022-08-05T13:54:15.358Z,102030.38
2022-08-05T13:56:50.687Z,102027.16
2022-08-05T13:59:21.379Z,102016.28
2022-08-05T14:01:59.032Z,102017.06
2022-08-05T14:04:50.036Z,102021.63
2022-08-05T14:07:55.637Z,102025.97
2022-08-05T14:10:10.289Z,102030.59
2022-08-05T14:12:36.910Z,102035.22
2022-08-05T14:16:03.995Z,102034.31
2022-08-05T14:17:51.509Z,102037.69
2022-08-05T14:20:21.703Z,102044.91
2022-08-05T14:22:54.580Z,102043.38
2022-08-05T14:25:22.525Z,102041.22
2022-08-05T14:27:54.539Z,102040.66
2022-08-05T14:30:21.478Z,102040.50
2022-08-05T14:32:48.857Z,102050.16
2022-08-05T14:35:16.256Z,102049.50
2022-08-05T14:37:49.027Z,102048.56
2022-08-05T14:40:17.584Z,102055.00
2022-08-05T14:42:44.187Z,102052.09
2022-08-05T14:45:10.962Z,102059.53
2022-08-05T14:48:05.572Z,102051.22
2022-08-05T14:50:25.299Z,102052.00
2022-08-05T14:52:58.292Z,102060.59
2022-08-05T14:55:38.481Z,102064.25
2022-08-05T14:58:11.763Z,102064.75
2022-08-05T15:00:58.430Z,102070.41
2022-08-05T15:03:34.179Z,102068.75
2022-08-05T15:06:12.869Z,102068.75
2022-08-05T15:09:01.108Z,102068.00
2022-08-05T15:11:52.580Z,102077.94
2022-08-05T15:14:33.995Z,102068.97
2022-08-05T15:17:03.976Z,102076.22
2022-08-05T15:19:31.147Z,102067.19
2022-08-05T15:21:59.963Z,102085.25
2022-08-05T15:24:27.441Z,102084.16
2022-08-05T15:26:54.017Z,102088.91
2022-08-05T15:29:22.985Z,102090.59
2022-08-05T15:31:52.768Z,102081.63
2022-08-05T15:34:32.567Z,102086.88
2022-08-05T15:37:04.645Z,102086.06
2022-08-05T15:41:00.151Z,102082.44
2022-08-05T15:42:56.780Z,102076.28
2022-08-05T15:45:06.092Z,102092.66
2022-08-05T15:47:32.898Z,102088.72
2022-08-05T15:50:03.658Z,102083.47
2022-08-05T15:52:52.920Z,102081.63
2022-08-05T15:55:17.651Z,102078.91
2022-08-05T15:57:49.026Z,102081.41
2022-08-05T16:00:26.371Z,102079.94
2022-08-05T16:03:04.894Z,102089.00
2022-08-05T16:05:32.031Z,102088.13
2022-08-05T16:07:58.620Z,102096.13
2022-08-05T16:10:26.950Z,102096.16
2022-08-05T16:12:56.109Z,102103.53
2022-08-05T16:15:23.620Z,102103.66
2022-08-05T16:17:58.030Z,102103.53
2022-08-05T16:20:25.463Z,102098.75
2022-08-05T16:22:52.025Z,102101.56
2022-08-05T16:25:18.646Z,102104.28
2022-08-05T16:27:47.245Z,102108.88
2022-08-05T16:30:32.265Z,102091.59
2022-08-05T16:32:59.995Z,102104.09
2022-08-05T16:35:28.667Z,102112.34
2022-08-05T16:38:03.582Z,102103.38
2022-08-05T16:40:51.953Z,102121.34
2022-08-05T16:43:23.879Z,102120.41
2022-08-05T16:46:03.520Z,102122.13
2022-08-05T16:48:39.176Z,102125.00
2022-08-05T16:51:09.168Z,102126.78
2022-08-05T16:54:05.366Z,102121.13
2022-08-05T16:56:29.690Z,102132.13
2022-08-05T16:58:56.901Z,102134.00
2022-08-05T17:01:24.288Z,102130.44
2022-08-05T17:03:51.886Z,102135.78
2022-08-05T17:06:18.934Z,102144.75
2022-08-05T17:08:53.265Z,102144.53
2022-08-05T17:11:25.712Z,102142.88
2022-08-05T17:14:00.647Z,102150.09
2022-08-05T17:16:36.553Z,102154.44
2022-08-05T17:19:07.419Z,102148.00
2022-08-05T17:21:35.608Z,102151.44
2022-08-05T17:24:18.711Z,102150.94
2022-08-05T17:26:57.778Z,102157.03
2022-08-05T17:29:33.410Z,102146.31
2022-08-05T17:32:08.291Z,102157.94
2022-08-05T17:34:35.194Z,102156.97
2022-08-05T17:37:02.068Z,102158.97
2022-08-05T17:39:34.617Z,102155.31
2022-08-05T17:42:18.621Z,102152.81
2022-08-05T17:44:50.428Z,102153.53
2022-08-05T17:47:22.057Z,102159.88
2022-08-05T17:49:52.139Z,102160.75
2022-08-05T17:52:30.541Z,102164.31
2022-08-05T17:54:57.788Z,102169.75
2022-08-05T17:57:24.541Z,102166.09
2022-08-05T18:00:03.611Z,102175.28
2022-08-05T18:02:31.688Z,102180.63
2022-08-05T18:04:58.972Z,102182.81
2022-08-05T18:07:32.859Z,102191.94
2022-08-05T18:10:10.529Z,102187.16
2022-08-05T18:12:37.759Z,102190.66
2022-08-05T18:15:04.970Z,102186.38
2022-08-05T18:18:00.559Z,102192.53
2022-08-05T18:20:29.445Z,102196.09
2022-08-05T18:23:04.869Z,102194.66
2022-08-05T18:25:38.889Z,102201.03
2022-08-05T18:28:06.639Z,102200.91
2022-08-05T18:30:34.321Z,102202.69
2022-08-05T18:33:01.423Z,102202.59
2022-08-05T18:36:01.173Z,102211.78
2022-08-05T18:38:19.381Z,102213.34
2022-08-05T18:41:56.410Z,102215.13
2022-08-05T18:43:42.693Z,102213.34
2022-08-05T18:46:15.222Z,102221.66
2022-08-05T18:48:42.155Z,102218.91
2022-08-05T18:52:06.917Z,102218.91
2022-08-05T18:54:14.666Z,102220.88
2022-08-05T18:56:41.793Z,102222.56
2022-08-05T18:59:44.173Z,102224.56
2022-08-05T19:02:04.892Z,102228.41
2022-08-05T19:05:01.408Z,102236.34
2022-08-05T19:07:46.061Z,102230.06
2022-08-05T19:10:14.731Z,102234.63
2022-08-05T19:12:41.482Z,102230.34
2022-08-05T19:15:24.940Z,102230.47
2022-08-05T19:18:08.441Z,102233.03
2022-08-05T19:20:41.578Z,102233.13
2022-08-05T19:24:04.987Z,102231.81
2022-08-05T19:26:02.039Z,102237.88
2022-08-05T19:28:33.022Z,102239.53
2022-08-05T19:31:00.372Z,102238.03
2022-08-05T19:33:35.577Z,102234.31
2022-08-05T19:36:06.428Z,102248.84
2022-08-05T19:38:35.520Z,102251.69
2022-08-05T19:41:02.907Z,102248.91
2022-08-05T19:44:06.402Z,102250.22
2022-08-05T19:46:29.165Z,102250.91
2022-08-05T19:48:57.444Z,102258.41
2022-08-05T19:52:05.522Z,102261.97
2022-08-05T19:54:25.500Z,102275.66
2022-08-05T19:56:58.250Z,102277.41
2022-08-05T19:59:54.710Z,102271.63
2022-08-05T20:02:12.794Z,102275.81
2022-08-05T20:04:43.104Z,102277.41
2022-08-05T20:07:13.471Z,102277.63
2022-08-05T20:09:55.076Z,102284.16
2022-08-05T20:12:24.777Z,102288.91
2022-08-05T20:14:52.878Z,102286.41
2022-08-05T20:17:23.632Z,102288.19
2022-08-05T20:19:56.848Z,102284.66
2022-08-05T20:22:25.000Z,102280.97
2022-08-05T20:24:54.638Z,102294.41
2022-08-05T20:27:27.059Z,102299.16
2022-08-05T20:29:58.196Z,102301.25
2022-08-05T20:32:25.393Z,102299.22
2022-08-05T20:34:52.064Z,102302.81
2022-08-05T20:38:04.636Z,102306.28
2022-08-05T20:40:06.737Z,102310.06
2022-08-05T20:42:33.332Z,102319.19
2022-08-05T20:45:02.250Z,102312.84
2022-08-05T20:47:32.712Z,102308.28
2022-08-05T20:50:02.132Z,102311.81
2022-08-05T20:52:29.348Z,102314.81
2022-08-05T20:55:15.936Z,102323.06
2022-08-05T20:57:44.693Z,102337.50
2022-08-05T21:00:40.262Z,102337.56
2022-08-05T21:03:06.822Z,102335.72
2022-08-05T21:05:48.413Z,102342.94
2022-08-05T21:08:26.754Z,102346.41
2022-08-05T21:11:09.315Z,102342.16
2022-08-05T21:13:55.729Z,102343.25
2022-08-05T21:16:29.595Z,102352.25
2022-08-05T21:19:00.466Z,102359.47
2022-08-05T21:21:39.568Z,102355.84
2022-08-05T21:24:13.513Z,102363.19
2022-08-05T21:26:44.103Z,102364.22
2022-08-05T21:29:16.680Z,102359.53
2022-08-05T21:31:43.601Z,102364.03
2022-08-05T21:34:11.134Z,102367.03
2022-08-05T21:36:38.091Z,102366.06
2022-08-05T21:39:04.788Z,102368.03
2022-08-05T21:41:34.248Z,102370.03
2022-08-05T21:44:04.051Z,102358.44
2022-08-05T21:46:32.293Z,102373.72
2022-08-05T21:49:01.809Z,102374.53
2022-08-05T21:52:21.904Z,102387.41
2022-08-05T21:54:15.030Z,102386.31
2022-08-05T21:56:44.297Z,102381.91
2022-08-05T21:59:24.180Z,102382.84
2022-08-05T22:01:54.504Z,102383.78
2022-08-05T22:04:21.508Z,102382.16
2022-08-05T22:06:52.536Z,102381.16
2022-08-05T22:09:21.563Z,102384.69
2022-08-05T22:11:48.977Z,102380.28
2022-08-05T22:14:35.176Z,102380.28
2022-08-05T22:17:06.976Z,102378.50
2022-08-05T22:20:00.190Z,102384.03
2022-08-05T22:22:27.093Z,102387.72
2022-08-05T22:25:21.645Z,102387.66
2022-08-05T22:28:09.915Z,102391.31
2022-08-05T22:30:55.471Z,102390.41
2022-08-05T22:33:57.944Z,102396.75
2022-08-05T22:36:10.093Z,102398.59
2022-08-05T22:38:36.703Z,102407.88
2022-08-05T22:41:09.833Z,102410.47
2022-08-05T22:43:38.015Z,102399.63
2022-08-05T22:46:12.303Z,102411.50
2022-08-05T22:48:41.009Z,102411.50
2022-08-05T22:51:07.813Z,102417.91
2022-08-05T22:53:35.754Z,102419.78
2022-08-05T22:56:03.270Z,102428.81
2022-08-05T22:58:36.225Z,102433.50
2022-08-05T23:01:02.817Z,102430.75
2022-08-05T23:03:57.872Z,102438.84
2022-08-05T23:06:19.033Z,102431.63
2022-08-05T23:08:45.727Z,102429.81
2022-08-05T23:11:18.794Z,102436.22
2022-08-05T23:13:45.867Z,102431.56
2022-08-05T23:16:25.985Z,102434.41
2022-08-05T23:19:00.017Z,102439.91
2022-08-05T23:21:42.509Z,102433.59
2022-08-05T23:24:14.447Z,102439.09
2022-08-05T23:26:41.886Z,102439.13
2022-08-05T23:29:10.779Z,102442.69
2022-08-05T23:31:42.470Z,102442.75
2022-08-05T23:34:09.111Z,102442.75
2022-08-05T23:36:38.512Z,102452.72
2022-08-05T23:39:10.897Z,102447.25
2022-08-05T23:41:48.376Z,102452.78
2022-08-05T23:44:16.627Z,102458.09
2022-08-05T23:46:43.700Z,102452.88
2022-08-05T23:49:16.749Z,102448.28
2022-08-05T23:52:02.708Z,102455.59
2022-08-05T23:54:38.423Z,102453.06
2022-08-05T23:57:06.042Z,102452.03
